sensor_id;sensor_type;location;lat;lon;timestamp;temperature;humidity
32534;DHT22;18973;48.580;8.912;2023-05-19T00:01:27;12.70;99.10
32534;DHT22;18973;48.580;8.912;2023-05-19T00:03:55;12.70;98.90
32534;DHT22;18973;48.580;8.912;2023-05-19T00:06:27;12.60;98.70
32534;DHT22;18973;48.580;8.912;2023-05-19T00:11:27;12.50;98.80
32534;DHT22;18973;48.580;8.912;2023-05-19T00:13:54;12.50;98.70
32534;DHT22;18973;48.580;8.912;2023-05-19T00:16:20;12.40;98.70
32534;DHT22;18973;48.580;8.912;2023-05-19T00:18:47;12.40;98.80
32534;DHT22;18973;48.580;8.912;2023-05-19T00:21:13;12.40;98.90
32534;DHT22;18973;48.580;8.912;2023-05-19T00:23:38;12.40;98.80
32534;DHT22;18973;48.580;8.912;2023-05-19T00:26:04;12.40;98.70
32534;DHT22;18973;48.580;8.912;2023-05-19T00:28:30;12.40;98.40
32534;DHT22;18973;48.580;8.912;2023-05-19T00:30:56;12.30;98.80
32534;DHT22;18973;48.580;8.912;2023-05-19T00:33:21;12.30;98.50
32534;DHT22;18973;48.580;8.912;2023-05-19T00:35:47;12.30;98.90
32534;DHT22;18973;48.580;8.912;2023-05-19T00:38:13;12.30;99.00
32534;DHT22;18973;48.580;8.912;2023-05-19T00:40:39;12.30;98.90
32534;DHT22;18973;48.580;8.912;2023-05-19T00:43:04;12.40;99.20
32534;DHT22;18973;48.580;8.912;2023-05-19T00:45:30;12.40;99.30
32534;DHT22;18973;48.580;8.912;2023-05-19T00:47:56;12.40;99.50
32534;DHT22;18973;48.580;8.912;2023-05-19T00:50:22;12.30;99.70
32534;DHT22;18973;48.580;8.912;2023-05-19T00:52:49;12.30;99.80
32534;DHT22;18973;48.580;8.912;2023-05-19T00:55:15;12.30;99.90
32534;DHT22;18973;48.580;8.912;2023-05-19T00:57:42;12.20;99.90
32534;DHT22;18973;48.580;8.912;2023-05-19T01:00:09;12.30;99.90
32534;DHT22;18973;48.580;8.912;2023-05-19T01:02:36;12.20;99.90
32534;DHT22;18973;48.580;8.912;2023-05-19T01:05:05;12.20;99.90
32534;DHT22;18973;48.580;8.912;2023-05-19T01:07:31;12.10;99.90
32534;DHT22;18973;48.580;8.912;2023-05-19T01:09:57;12.00;99.90
32534;DHT22;18973;48.580;8.912;2023-05-19T01:12:23;12.00;99.90
32534;DHT22;18973;48.580;8.912;2023-05-19T01:14:50;12.10;99.90
32534;DHT22;18973;48.580;8.912;2023-05-19T01:17:26;12.10;99.90
32534;DHT22;18973;48.580;8.912;2023-05-19T01:20:05;12.00;99.90
32534;DHT22;18973;48.580;8.912;2023-05-19T01:29:06;11.90;99.90
32534;DHT22;18973;48.580;8.912;2023-05-19T01:31:32;11.90;99.90
32534;DHT22;18973;48.580;8.912;2023-05-19T01:34:00;11.80;99.90
32534;DHT22;18973;48.580;8.912;2023-05-19T01:36:26;11.80;99.90
32534;DHT22;18973;48.580;8.912;2023-05-19T01:38:55;11.80;99.90
32534;DHT22;18973;48.580;8.912;2023-05-19T01:41:22;11.80;99.90
32534;DHT22;18973;48.580;8.912;2023-05-19T01:43:48;11.80;99.90
32534;DHT22;18973;48.580;8.912;2023-05-19T01:46:15;11.80;99.90
32534;DHT22;18973;48.580;8.912;2023-05-19T01:48:42;11.60;99.90
32534;DHT22;18973;48.580;8.912;2023-05-19T01:51:09;11.60;99.90
32534;DHT22;18973;48.580;8.912;2023-05-19T01:53:34;11.50;99.90
32534;DHT22;18973;48.580;8.912;2023-05-19T01:56:02;11.50;99.90
32534;DHT22;18973;48.580;8.912;2023-05-19T01:58:44;11.60;99.90
32534;DHT22;18973;48.580;8.912;2023-05-19T02:01:30;11.60;99.90
32534;DHT22;18973;48.580;8.912;2023-05-19T02:04:18;11.60;99.90
32534;DHT22;18973;48.580;8.912;2023-05-19T02:07:07;11.50;99.90
32534;DHT22;18973;48.580;8.912;2023-05-19T02:12:37;11.60;99.90
32534;DHT22;18973;48.580;8.912;2023-05-19T02:15:14;11.60;99.90
32534;DHT22;18973;48.580;8.912;2023-05-19T02:17:42;11.60;99.90
32534;DHT22;18973;48.580;8.912;2023-05-19T02:20:13;11.60;99.90
32534;DHT22;18973;48.580;8.912;2023-05-19T02:22:39;11.60;99.90
32534;DHT22;18973;48.580;8.912;2023-05-19T02:25:05;11.50;99.90
32534;DHT22;18973;48.580;8.912;2023-05-19T02:27:32;11.40;99.90
32534;DHT22;18973;48.580;8.912;2023-05-19T02:29:58;11.40;99.90
32534;DHT22;18973;48.580;8.912;2023-05-19T02:32:23;11.50;99.90
32534;DHT22;18973;48.580;8.912;2023-05-19T02:34:49;11.40;99.90
32534;DHT22;18973;48.580;8.912;2023-05-19T02:37:15;11.40;99.90
32534;DHT22;18973;48.580;8.912;2023-05-19T02:39:41;11.40;99.90
32534;DHT22;18973;48.580;8.912;2023-05-19T02:42:07;11.40;99.90
32534;DHT22;18973;48.580;8.912;2023-05-19T02:44:33;11.40;99.90
32534;DHT22;18973;48.580;8.912;2023-05-19T02:46:59;11.50;99.90
32534;DHT22;18973;48.580;8.912;2023-05-19T02:49:25;11.50;99.90
32534;DHT22;18973;48.580;8.912;2023-05-19T02:51:50;11.50;99.90
32534;DHT22;18973;48.580;8.912;2023-05-19T02:54:16;11.50;99.90
32534;DHT22;18973;48.580;8.912;2023-05-19T02:56:42;11.40;99.90
32534;DHT22;18973;48.580;8.912;2023-05-19T02:59:07;11.40;99.90
32534;DHT22;18973;48.580;8.912;2023-05-19T03:01:33;11.40;99.90
32534;DHT22;18973;48.580;8.912;2023-05-19T03:03:59;11.30;99.90
32534;DHT22;18973;48.580;8.912;2023-05-19T03:06:24;11.30;99.90
32534;DHT22;18973;48.580;8.912;2023-05-19T03:08:50;11.20;99.90
32534;DHT22;18973;48.580;8.912;2023-05-19T03:11:16;11.20;99.90
32534;DHT22;18973;48.580;8.912;2023-05-19T03:13:42;11.20;99.90
32534;DHT22;18973;48.580;8.912;2023-05-19T03:16:07;11.20;99.90
32534;DHT22;18973;48.580;8.912;2023-05-19T03:18:33;11.10;99.90
32534;DHT22;18973;48.580;8.912;2023-05-19T03:21:00;11.20;99.90
32534;DHT22;18973;48.580;8.912;2023-05-19T03:23:25;11.20;99.90
32534;DHT22;18973;48.580;8.912;2023-05-19T03:25:51;11.10;99.90
32534;DHT22;18973;48.580;8.912;2023-05-19T03:28:20;11.10;99.90
32534;DHT22;18973;48.580;8.912;2023-05-19T03:30:48;11.20;99.90
32534;DHT22;18973;48.580;8.912;2023-05-19T03:33:15;11.20;99.90
32534;DHT22;18973;48.580;8.912;2023-05-19T03:35:41;11.20;99.90
32534;DHT22;18973;48.580;8.912;2023-05-19T03:38:08;11.20;99.90
32534;DHT22;18973;48.580;8.912;2023-05-19T03:40:34;11.20;99.90
32534;DHT22;18973;48.580;8.912;2023-05-19T03:43:00;11.10;99.90
32534;DHT22;18973;48.580;8.912;2023-05-19T03:45:26;11.30;99.90
32534;DHT22;18973;48.580;8.912;2023-05-19T03:47:52;11.20;99.90
32534;DHT22;18973;48.580;8.912;2023-05-19T03:50:18;11.10;99.90
32534;DHT22;18973;48.580;8.912;2023-05-19T03:52:43;11.10;99.90
32534;DHT22;18973;48.580;8.912;2023-05-19T03:55:09;11.20;99.90
32534;DHT22;18973;48.580;8.912;2023-05-19T03:57:35;11.10;99.90
32534;DHT22;18973;48.580;8.912;2023-05-19T04:00:03;11.10;99.90
32534;DHT22;18973;48.580;8.912;2023-05-19T04:02:30;11.10;99.90
32534;DHT22;18973;48.580;8.912;2023-05-19T04:04:56;11.00;99.90
32534;DHT22;18973;48.580;8.912;2023-05-19T04:07:22;11.10;99.90
32534;DHT22;18973;48.580;8.912;2023-05-19T04:09:48;11.20;99.90
32534;DHT22;18973;48.580;8.912;2023-05-19T04:12:14;11.20;99.90
32534;DHT22;18973;48.580;8.912;2023-05-19T04:14:40;11.20;99.90
32534;DHT22;18973;48.580;8.912;2023-05-19T04:17:05;11.30;99.90
32534;DHT22;18973;48.580;8.912;2023-05-19T04:19:31;11.30;99.90
32534;DHT22;18973;48.580;8.912;2023-05-19T04:21:57;11.40;99.90
32534;DHT22;18973;48.580;8.912;2023-05-19T04:24:22;11.40;99.90
32534;DHT22;18973;48.580;8.912;2023-05-19T04:26:48;11.40;99.90
32534;DHT22;18973;48.580;8.912;2023-05-19T04:29:14;11.40;99.90
32534;DHT22;18973;48.580;8.912;2023-05-19T04:31:45;11.40;99.90
32534;DHT22;18973;48.580;8.912;2023-05-19T04:34:11;11.50;99.90
32534;DHT22;18973;48.580;8.912;2023-05-19T04:36:37;11.70;99.90
32534;DHT22;18973;48.580;8.912;2023-05-19T04:39:02;11.70;99.90
32534;DHT22;18973;48.580;8.912;2023-05-19T04:41:32;11.70;99.90
32534;DHT22;18973;48.580;8.912;2023-05-19T04:43:59;11.80;99.90
32534;DHT22;18973;48.580;8.912;2023-05-19T04:46:25;11.70;99.90
32534;DHT22;18973;48.580;8.912;2023-05-19T04:48:51;11.70;99.90
32534;DHT22;18973;48.580;8.912;2023-05-19T04:51:18;11.70;99.90
32534;DHT22;18973;48.580;8.912;2023-05-19T04:53:44;11.70;99.90
32534;DHT22;18973;48.580;8.912;2023-05-19T04:56:10;11.60;99.90
32534;DHT22;18973;48.580;8.912;2023-05-19T04:58:40;11.50;99.90
32534;DHT22;18973;48.580;8.912;2023-05-19T05:01:06;11.70;99.90
32534;DHT22;18973;48.580;8.912;2023-05-19T05:03:34;11.60;99.90
32534;DHT22;18973;48.580;8.912;2023-05-19T05:05:59;11.60;99.90
32534;DHT22;18973;48.580;8.912;2023-05-19T05:08:25;11.70;99.90
32534;DHT22;18973;48.580;8.912;2023-05-19T05:10:52;11.70;99.90
32534;DHT22;18973;48.580;8.912;2023-05-19T05:13:22;11.70;99.90
32534;DHT22;18973;48.580;8.912;2023-05-19T05:15:48;11.80;99.90
32534;DHT22;18973;48.580;8.912;2023-05-19T05:18:14;11.70;99.90
32534;DHT22;18973;48.580;8.912;2023-05-19T05:20:41;11.60;99.90
32534;DHT22;18973;48.580;8.912;2023-05-19T05:23:08;11.70;99.90
32534;DHT22;18973;48.580;8.912;2023-05-19T05:25:35;11.70;99.90
32534;DHT22;18973;48.580;8.912;2023-05-19T05:28:01;11.80;99.90
32534;DHT22;18973;48.580;8.912;2023-05-19T05:30:30;11.90;99.90
32534;DHT22;18973;48.580;8.912;2023-05-19T05:32:56;11.90;99.90
32534;DHT22;18973;48.580;8.912;2023-05-19T05:35:22;11.90;99.90
32534;DHT22;18973;48.580;8.912;2023-05-19T05:37:48;12.10;99.90
32534;DHT22;18973;48.580;8.912;2023-05-19T05:40:14;12.20;99.90
32534;DHT22;18973;48.580;8.912;2023-05-19T05:42:41;12.30;99.90
32534;DHT22;18973;48.580;8.912;2023-05-19T05:45:07;12.40;99.90
32534;DHT22;18973;48.580;8.912;2023-05-19T05:47:33;12.30;99.90
32534;DHT22;18973;48.580;8.912;2023-05-19T05:50:03;12.40;99.90
32534;DHT22;18973;48.580;8.912;2023-05-19T05:52:29;12.30;99.90
32534;DHT22;18973;48.580;8.912;2023-05-19T05:54:55;12.30;99.90
32534;DHT22;18973;48.580;8.912;2023-05-19T05:57:21;12.30;99.90
32534;DHT22;18973;48.580;8.912;2023-05-19T05:59:47;12.10;99.90
32534;DHT22;18973;48.580;8.912;2023-05-19T06:02:13;12.20;99.90
32534;DHT22;18973;48.580;8.912;2023-05-19T06:04:39;12.20;99.90
32534;DHT22;18973;48.580;8.912;2023-05-19T06:07:05;12.30;99.90
32534;DHT22;18973;48.580;8.912;2023-05-19T06:09:30;12.50;99.90
32534;DHT22;18973;48.580;8.912;2023-05-19T06:11:57;12.70;99.90
32534;DHT22;18973;48.580;8.912;2023-05-19T06:14:23;12.80;99.90
32534;DHT22;18973;48.580;8.912;2023-05-19T06:16:49;12.70;99.90
32534;DHT22;18973;48.580;8.912;2023-05-19T06:19:15;12.70;99.90
32534;DHT22;18973;48.580;8.912;2023-05-19T06:21:40;12.80;99.90
32534;DHT22;18973;48.580;8.912;2023-05-19T06:24:07;13.00;99.90
32534;DHT22;18973;48.580;8.912;2023-05-19T06:26:33;13.00;99.90
32534;DHT22;18973;48.580;8.912;2023-05-19T06:28:58;13.10;99.90
32534;DHT22;18973;48.580;8.912;2023-05-19T06:31:24;13.20;99.90
32534;DHT22;18973;48.580;8.912;2023-05-19T06:33:51;13.20;99.90
32534;DHT22;18973;48.580;8.912;2023-05-19T06:36:18;13.20;99.90
32534;DHT22;18973;48.580;8.912;2023-05-19T06:38:43;13.30;99.90
32534;DHT22;18973;48.580;8.912;2023-05-19T06:41:09;13.30;99.90
32534;DHT22;18973;48.580;8.912;2023-05-19T06:43:35;13.30;99.90
32534;DHT22;18973;48.580;8.912;2023-05-19T06:46:01;13.40;99.90
32534;DHT22;18973;48.580;8.912;2023-05-19T06:48:26;13.40;99.90
32534;DHT22;18973;48.580;8.912;2023-05-19T06:50:52;13.40;99.90
32534;DHT22;18973;48.580;8.912;2023-05-19T06:53:18;13.90;99.90
32534;DHT22;18973;48.580;8.912;2023-05-19T06:55:45;14.00;99.90
32534;DHT22;18973;48.580;8.912;2023-05-19T06:58:11;14.20;99.90
32534;DHT22;18973;48.580;8.912;2023-05-19T07:00:36;14.10;99.90
32534;DHT22;18973;48.580;8.912;2023-05-19T07:03:02;13.80;99.90
32534;DHT22;18973;48.580;8.912;2023-05-19T07:05:28;13.90;99.90
32534;DHT22;18973;48.580;8.912;2023-05-19T07:07:53;13.90;99.90
32534;DHT22;18973;48.580;8.912;2023-05-19T07:10:19;14.10;99.90
32534;DHT22;18973;48.580;8.912;2023-05-19T07:12:46;14.30;99.90
32534;DHT22;18973;48.580;8.912;2023-05-19T07:15:12;14.10;99.90
32534;DHT22;18973;48.580;8.912;2023-05-19T07:17:37;13.80;99.90
32534;DHT22;18973;48.580;8.912;2023-05-19T07:20:03;13.80;99.90
32534;DHT22;18973;48.580;8.912;2023-05-19T07:22:34;13.80;99.90
32534;DHT22;18973;48.580;8.912;2023-05-19T07:25:00;13.90;99.90
32534;DHT22;18973;48.580;8.912;2023-05-19T07:27:26;13.90;99.90
32534;DHT22;18973;48.580;8.912;2023-05-19T07:29:52;13.90;99.90
32534;DHT22;18973;48.580;8.912;2023-05-19T07:32:17;14.00;99.90
32534;DHT22;18973;48.580;8.912;2023-05-19T07:34:43;13.90;99.90
32534;DHT22;18973;48.580;8.912;2023-05-19T07:37:09;13.90;99.90
32534;DHT22;18973;48.580;8.912;2023-05-19T07:39:35;13.80;99.90
32534;DHT22;18973;48.580;8.912;2023-05-19T07:42:00;13.80;99.90
32534;DHT22;18973;48.580;8.912;2023-05-19T07:44:26;13.60;99.90
32534;DHT22;18973;48.580;8.912;2023-05-19T07:46:53;13.50;99.90
32534;DHT22;18973;48.580;8.912;2023-05-19T07:49:19;13.60;99.90
32534;DHT22;18973;48.580;8.912;2023-05-19T07:51:44;13.40;99.90
32534;DHT22;18973;48.580;8.912;2023-05-19T07:54:10;13.40;99.90
32534;DHT22;18973;48.580;8.912;2023-05-19T07:56:36;13.30;99.90
32534;DHT22;18973;48.580;8.912;2023-05-19T07:59:02;13.40;99.90
32534;DHT22;18973;48.580;8.912;2023-05-19T08:01:29;13.50;99.90
32534;DHT22;18973;48.580;8.912;2023-05-19T08:03:55;13.50;99.90
32534;DHT22;18973;48.580;8.912;2023-05-19T08:06:21;13.40;99.90
32534;DHT22;18973;48.580;8.912;2023-05-19T08:08:47;13.30;99.90
32534;DHT22;18973;48.580;8.912;2023-05-19T08:11:12;13.20;99.90
32534;DHT22;18973;48.580;8.912;2023-05-19T08:13:38;13.30;99.90
32534;DHT22;18973;48.580;8.912;2023-05-19T08:16:04;13.40;99.90
32534;DHT22;18973;48.580;8.912;2023-05-19T08:18:30;13.40;99.90
32534;DHT22;18973;48.580;8.912;2023-05-19T08:20:55;13.50;99.90
32534;DHT22;18973;48.580;8.912;2023-05-19T08:23:21;13.70;99.90
32534;DHT22;18973;48.580;8.912;2023-05-19T08:25:47;13.70;99.90
32534;DHT22;18973;48.580;8.912;2023-05-19T08:28:13;13.90;99.90
32534;DHT22;18973;48.580;8.912;2023-05-19T08:30:38;14.00;99.90
32534;DHT22;18973;48.580;8.912;2023-05-19T08:33:04;14.10;99.90
32534;DHT22;18973;48.580;8.912;2023-05-19T08:35:30;14.30;99.90
32534;DHT22;18973;48.580;8.912;2023-05-19T08:37:56;14.30;99.90
32534;DHT22;18973;48.580;8.912;2023-05-19T08:40:22;14.50;99.90
32534;DHT22;18973;48.580;8.912;2023-05-19T08:42:48;14.60;99.90
32534;DHT22;18973;48.580;8.912;2023-05-19T08:45:14;14.50;99.90
32534;DHT22;18973;48.580;8.912;2023-05-19T08:47:40;14.30;99.60
32534;DHT22;18973;48.580;8.912;2023-05-19T08:50:07;14.50;99.90
32534;DHT22;18973;48.580;8.912;2023-05-19T08:52:51;14.40;99.50
32534;DHT22;18973;48.580;8.912;2023-05-19T08:55:33;14.30;99.90
32534;DHT22;18973;48.580;8.912;2023-05-19T08:58:00;14.30;99.90
32534;DHT22;18973;48.580;8.912;2023-05-19T09:00:28;14.20;99.90
32534;DHT22;18973;48.580;8.912;2023-05-19T09:02:54;14.30;99.80
32534;DHT22;18973;48.580;8.912;2023-05-19T09:05:22;14.20;99.90
32534;DHT22;18973;48.580;8.912;2023-05-19T09:07:48;14.10;99.90
32534;DHT22;18973;48.580;8.912;2023-05-19T09:10:14;14.10;99.90
32534;DHT22;18973;48.580;8.912;2023-05-19T09:12:45;14.20;99.90
32534;DHT22;18973;48.580;8.912;2023-05-19T09:15:17;14.20;99.70
32534;DHT22;18973;48.580;8.912;2023-05-19T09:17:46;14.20;99.90
32534;DHT22;18973;48.580;8.912;2023-05-19T09:20:15;14.30;99.90
32534;DHT22;18973;48.580;8.912;2023-05-19T09:22:45;14.40;99.80
32534;DHT22;18973;48.580;8.912;2023-05-19T09:27:45;14.10;99.90
32534;DHT22;18973;48.580;8.912;2023-05-19T09:30:12;14.20;99.90
32534;DHT22;18973;48.580;8.912;2023-05-19T09:32:38;14.20;99.90
32534;DHT22;18973;48.580;8.912;2023-05-19T09:35:04;14.10;99.80
32534;DHT22;18973;48.580;8.912;2023-05-19T09:37:30;14.10;99.90
32534;DHT22;18973;48.580;8.912;2023-05-19T09:39:56;14.20;99.70
32534;DHT22;18973;48.580;8.912;2023-05-19T09:42:26;14.20;99.90
32534;DHT22;18973;48.580;8.912;2023-05-19T09:45:02;14.30;99.90
32534;DHT22;18973;48.580;8.912;2023-05-19T09:47:39;14.20;99.70
32534;DHT22;18973;48.580;8.912;2023-05-19T09:50:09;14.20;99.90
32534;DHT22;18973;48.580;8.912;2023-05-19T09:52:42;14.20;99.10
32534;DHT22;18973;48.580;8.912;2023-05-19T09:55:09;14.30;99.80
32534;DHT22;18973;48.580;8.912;2023-05-19T09:57:36;14.30;99.70
32534;DHT22;18973;48.580;8.912;2023-05-19T10:00:04;14.20;99.30
32534;DHT22;18973;48.580;8.912;2023-05-19T10:02:42;14.30;99.30
32534;DHT22;18973;48.580;8.912;2023-05-19T10:05:11;14.30;99.00
32534;DHT22;18973;48.580;8.912;2023-05-19T10:07:39;14.10;99.30
32534;DHT22;18973;48.580;8.912;2023-05-19T10:10:08;14.10;99.70
32534;DHT22;18973;48.580;8.912;2023-05-19T10:12:34;14.20;99.70
32534;DHT22;18973;48.580;8.912;2023-05-19T10:15:01;14.30;99.80
32534;DHT22;18973;48.580;8.912;2023-05-19T10:17:27;14.30;99.70
32534;DHT22;18973;48.580;8.912;2023-05-19T10:19:53;14.40;99.30
32534;DHT22;18973;48.580;8.912;2023-05-19T10:22:19;14.20;99.10
32534;DHT22;18973;48.580;8.912;2023-05-19T10:24:46;14.00;99.10
32534;DHT22;18973;48.580;8.912;2023-05-19T10:27:13;14.00;99.90
32534;DHT22;18973;48.580;8.912;2023-05-19T10:29:43;14.10;99.70
32534;DHT22;18973;48.580;8.912;2023-05-19T10:32:13;14.00;99.40
32534;DHT22;18973;48.580;8.912;2023-05-19T10:34:56;13.90;99.60
32534;DHT22;18973;48.580;8.912;2023-05-19T10:40:36;14.20;99.90
32534;DHT22;18973;48.580;8.912;2023-05-19T10:43:34;14.20;99.40
32534;DHT22;18973;48.580;8.912;2023-05-19T10:46:03;14.10;99.90
32534;DHT22;18973;48.580;8.912;2023-05-19T10:48:32;14.00;99.90
32534;DHT22;18973;48.580;8.912;2023-05-19T10:50:58;14.10;99.80
32534;DHT22;18973;48.580;8.912;2023-05-19T10:53:30;14.30;99.80
32534;DHT22;18973;48.580;8.912;2023-05-19T10:55:56;14.40;99.90
32534;DHT22;18973;48.580;8.912;2023-05-19T11:01:09;14.30;99.30
32534;DHT22;18973;48.580;8.912;2023-05-19T11:04:07;14.30;99.60
32534;DHT22;18973;48.580;8.912;2023-05-19T11:06:37;14.30;99.30
32534;DHT22;18973;48.580;8.912;2023-05-19T11:09:13;14.30;99.60
32534;DHT22;18973;48.580;8.912;2023-05-19T11:12:02;14.20;99.90
32534;DHT22;18973;48.580;8.912;2023-05-19T11:14:28;14.70;99.90
32534;DHT22;18973;48.580;8.912;2023-05-19T11:16:58;15.00;99.90
32534;DHT22;18973;48.580;8.912;2023-05-19T11:19:29;14.90;99.90
32534;DHT22;18973;48.580;8.912;2023-05-19T11:21:56;15.10;99.90
32534;DHT22;18973;48.580;8.912;2023-05-19T11:24:38;15.40;99.60
32534;DHT22;18973;48.580;8.912;2023-05-19T11:29:49;15.30;98.20
32534;DHT22;18973;48.580;8.912;2023-05-19T11:32:16;15.00;98.20
32534;DHT22;18973;48.580;8.912;2023-05-19T11:34:43;14.50;99.20
32534;DHT22;18973;48.580;8.912;2023-05-19T11:37:10;14.50;99.60
32534;DHT22;18973;48.580;8.912;2023-05-19T11:39:36;14.50;99.60
32534;DHT22;18973;48.580;8.912;2023-05-19T11:42:03;14.60;99.90
32534;DHT22;18973;48.580;8.912;2023-05-19T11:44:29;14.50;99.90
32534;DHT22;18973;48.580;8.912;2023-05-19T11:46:57;14.50;99.40
32534;DHT22;18973;48.580;8.912;2023-05-19T11:49:22;14.60;99.20
32534;DHT22;18973;48.580;8.912;2023-05-19T11:51:48;14.70;99.10
32534;DHT22;18973;48.580;8.912;2023-05-19T11:54:14;14.80;99.90
32534;DHT22;18973;48.580;8.912;2023-05-19T11:56:40;14.90;99.40
32534;DHT22;18973;48.580;8.912;2023-05-19T11:59:07;14.80;99.00
32534;DHT22;18973;48.580;8.912;2023-05-19T12:01:33;14.80;99.00
32534;DHT22;18973;48.580;8.912;2023-05-19T12:04:00;14.70;98.70
32534;DHT22;18973;48.580;8.912;2023-05-19T12:06:26;14.90;98.80
32534;DHT22;18973;48.580;8.912;2023-05-19T12:08:55;14.80;99.00
32534;DHT22;18973;48.580;8.912;2023-05-19T12:11:22;14.70;99.10
32534;DHT22;18973;48.580;8.912;2023-05-19T12:13:48;14.70;98.50
32534;DHT22;18973;48.580;8.912;2023-05-19T12:16:21;14.50;98.80
32534;DHT22;18973;48.580;8.912;2023-05-19T12:18:47;14.40;99.30
32534;DHT22;18973;48.580;8.912;2023-05-19T12:21:13;14.40;99.00
32534;DHT22;18973;48.580;8.912;2023-05-19T12:23:40;14.40;99.00
32534;DHT22;18973;48.580;8.912;2023-05-19T12:26:07;14.40;99.20
32534;DHT22;18973;48.580;8.912;2023-05-19T12:28:32;14.40;99.50
32534;DHT22;18973;48.580;8.912;2023-05-19T12:30:58;14.70;99.60
32534;DHT22;18973;48.580;8.912;2023-05-19T12:33:24;14.70;99.40
32534;DHT22;18973;48.580;8.912;2023-05-19T12:35:50;14.70;98.60
32534;DHT22;18973;48.580;8.912;2023-05-19T12:38:18;14.80;99.00
32534;DHT22;18973;48.580;8.912;2023-05-19T12:40:44;14.80;98.70
32534;DHT22;18973;48.580;8.912;2023-05-19T12:43:24;14.70;98.90
32534;DHT22;18973;48.580;8.912;2023-05-19T12:45:50;14.70;99.20
32534;DHT22;18973;48.580;8.912;2023-05-19T12:48:16;14.70;99.10
32534;DHT22;18973;48.580;8.912;2023-05-19T12:50:43;14.60;99.00
32534;DHT22;18973;48.580;8.912;2023-05-19T12:53:13;14.70;98.60
32534;DHT22;18973;48.580;8.912;2023-05-19T12:55:40;14.80;98.70
32534;DHT22;18973;48.580;8.912;2023-05-19T12:58:07;14.90;99.10
32534;DHT22;18973;48.580;8.912;2023-05-19T13:00:35;14.90;98.70
32534;DHT22;18973;48.580;8.912;2023-05-19T13:03:06;14.90;98.70
32534;DHT22;18973;48.580;8.912;2023-05-19T13:05:36;14.90;98.90
32534;DHT22;18973;48.580;8.912;2023-05-19T13:08:07;14.80;98.60
32534;DHT22;18973;48.580;8.912;2023-05-19T13:10:34;14.80;99.20
32534;DHT22;18973;48.580;8.912;2023-05-19T13:13:00;14.70;98.90
32534;DHT22;18973;48.580;8.912;2023-05-19T13:15:28;14.80;98.90
32534;DHT22;18973;48.580;8.912;2023-05-19T13:17:56;14.80;98.60
32534;DHT22;18973;48.580;8.912;2023-05-19T13:20:22;14.70;98.80
32534;DHT22;18973;48.580;8.912;2023-05-19T13:22:49;14.80;99.50
32534;DHT22;18973;48.580;8.912;2023-05-19T13:25:15;14.90;99.10
32534;DHT22;18973;48.580;8.912;2023-05-19T13:27:43;15.00;98.90
32534;DHT22;18973;48.580;8.912;2023-05-19T13:30:10;15.00;98.50
32534;DHT22;18973;48.580;8.912;2023-05-19T13:32:36;14.80;98.40
32534;DHT22;18973;48.580;8.912;2023-05-19T13:35:02;14.70;98.60
32534;DHT22;18973;48.580;8.912;2023-05-19T13:37:28;14.70;99.00
32534;DHT22;18973;48.580;8.912;2023-05-19T13:39:54;14.70;99.00
32534;DHT22;18973;48.580;8.912;2023-05-19T13:42:21;14.70;99.00
32534;DHT22;18973;48.580;8.912;2023-05-19T13:44:47;14.70;99.10
32534;DHT22;18973;48.580;8.912;2023-05-19T13:47:13;14.80;99.10
32534;DHT22;18973;48.580;8.912;2023-05-19T13:49:39;14.90;98.60
32534;DHT22;18973;48.580;8.912;2023-05-19T13:52:06;14.70;99.00
32534;DHT22;18973;48.580;8.912;2023-05-19T13:54:32;14.60;99.00
32534;DHT22;18973;48.580;8.912;2023-05-19T13:56:58;14.70;99.00
32534;DHT22;18973;48.580;8.912;2023-05-19T13:59:24;14.80;99.40
32534;DHT22;18973;48.580;8.912;2023-05-19T14:01:50;14.80;99.40
32534;DHT22;18973;48.580;8.912;2023-05-19T14:04:17;14.90;98.90
32534;DHT22;18973;48.580;8.912;2023-05-19T14:06:43;15.00;98.80
32534;DHT22;18973;48.580;8.912;2023-05-19T14:09:09;15.00;99.30
32534;DHT22;18973;48.580;8.912;2023-05-19T14:11:35;15.20;99.80
32534;DHT22;18973;48.580;8.912;2023-05-19T14:14:01;15.20;98.80
32534;DHT22;18973;48.580;8.912;2023-05-19T14:16:30;15.20;99.30
32534;DHT22;18973;48.580;8.912;2023-05-19T14:18:56;15.00;98.80
32534;DHT22;18973;48.580;8.912;2023-05-19T14:21:22;14.90;99.10
32534;DHT22;18973;48.580;8.912;2023-05-19T14:23:47;14.70;99.20
32534;DHT22;18973;48.580;8.912;2023-05-19T14:26:13;14.70;99.50
32534;DHT22;18973;48.580;8.912;2023-05-19T14:28:39;14.60;99.80
32534;DHT22;18973;48.580;8.912;2023-05-19T14:31:05;14.70;99.40
32534;DHT22;18973;48.580;8.912;2023-05-19T14:33:31;14.90;99.30
32534;DHT22;18973;48.580;8.912;2023-05-19T14:35:57;14.90;98.80
32534;DHT22;18973;48.580;8.912;2023-05-19T14:38:25;14.90;98.50
32534;DHT22;18973;48.580;8.912;2023-05-19T14:40:51;14.90;98.90
32534;DHT22;18973;48.580;8.912;2023-05-19T14:43:17;14.90;99.20
32534;DHT22;18973;48.580;8.912;2023-05-19T14:45:43;15.10;98.90
32534;DHT22;18973;48.580;8.912;2023-05-19T14:48:09;15.10;99.20
32534;DHT22;18973;48.580;8.912;2023-05-19T14:50:37;15.10;98.80
32534;DHT22;18973;48.580;8.912;2023-05-19T14:53:03;15.10;98.40
32534;DHT22;18973;48.580;8.912;2023-05-19T14:55:29;14.90;98.20
32534;DHT22;18973;48.580;8.912;2023-05-19T14:57:55;14.80;98.60
32534;DHT22;18973;48.580;8.912;2023-05-19T15:00:20;14.70;98.90
32534;DHT22;18973;48.580;8.912;2023-05-19T15:02:46;14.60;99.10
32534;DHT22;18973;48.580;8.912;2023-05-19T15:05:13;14.70;98.70
32534;DHT22;18973;48.580;8.912;2023-05-19T15:07:39;14.70;98.70
32534;DHT22;18973;48.580;8.912;2023-05-19T15:10:06;14.50;99.00
32534;DHT22;18973;48.580;8.912;2023-05-19T15:12:32;14.40;99.50
32534;DHT22;18973;48.580;8.912;2023-05-19T15:14:57;14.50;99.90
32534;DHT22;18973;48.580;8.912;2023-05-19T15:17:23;14.60;99.70
32534;DHT22;18973;48.580;8.912;2023-05-19T15:19:49;14.60;99.70
32534;DHT22;18973;48.580;8.912;2023-05-19T15:22:14;14.70;99.90
32534;DHT22;18973;48.580;8.912;2023-05-19T15:24:40;14.70;99.60
32534;DHT22;18973;48.580;8.912;2023-05-19T15:27:07;14.70;99.70
32534;DHT22;18973;48.580;8.912;2023-05-19T15:29:33;14.70;99.90
32534;DHT22;18973;48.580;8.912;2023-05-19T15:31:58;14.90;99.80
32534;DHT22;18973;48.580;8.912;2023-05-19T15:34:24;14.90;99.70
32534;DHT22;18973;48.580;8.912;2023-05-19T15:36:50;15.00;99.90
32534;DHT22;18973;48.580;8.912;2023-05-19T15:39:15;14.80;99.50
32534;DHT22;18973;48.580;8.912;2023-05-19T15:41:41;15.00;99.80
32534;DHT22;18973;48.580;8.912;2023-05-19T15:44:07;14.90;99.90
32534;DHT22;18973;48.580;8.912;2023-05-19T15:46:33;15.00;99.40
32534;DHT22;18973;48.580;8.912;2023-05-19T15:48:58;15.00;99.40
32534;DHT22;18973;48.580;8.912;2023-05-19T15:51:25;14.90;99.10
32534;DHT22;18973;48.580;8.912;2023-05-19T15:53:51;14.90;98.90